sensor_id;sensor_type;location;lat;lon;timestamp;pressure;altitude;pressure_sealevel;temperature;humidity
69772;BME280;57046;45.988;18.664;2023-04-22T00:02:20;100429.91;;;13.81;74.55
69772;BME280;57046;45.988;18.664;2023-04-22T00:04:46;100433.75;;;13.80;75.61
69772;BME280;57046;45.988;18.664;2023-04-22T00:07:12;100423.47;;;13.73;75.81
69772;BME280;57046;45.988;18.664;2023-04-22T00:09:37;100431.72;;;13.76;75.90
69772;BME280;57046;45.988;18.664;2023-04-22T00:12:03;100436.47;;;13.80;77.21
69772;BME280;57046;45.988;18.664;2023-04-22T00:14:28;100429.00;;;13.76;76.24
69772;BME280;57046;45.988;18.664;2023-04-22T00:16:54;100417.00;;;13.65;76.99
69772;BME280;57046;45.988;18.664;2023-04-22T00:19:20;100430.47;;;13.74;76.44
69772;BME280;57046;45.988;18.664;2023-04-22T00:21:45;100435.44;;;13.72;76.92
69772;BME280;57046;45.988;18.664;2023-04-22T00:24:10;100436.94;;;13.69;76.79
69772;BME280;57046;45.988;18.664;2023-04-22T00:26:36;100429.09;;;13.68;77.27
69772;BME280;57046;45.988;18.664;2023-04-22T00:29:01;100420.41;;;13.62;76.84
69772;BME280;57046;45.988;18.664;2023-04-22T00:31:26;100430.59;;;13.65;76.90
69772;BME280;57046;45.988;18.664;2023-04-22T00:33:52;100424.34;;;13.65;76.70
69772;BME280;57046;45.988;18.664;2023-04-22T00:36:18;100426.16;;;13.61;77.59
69772;BME280;57046;45.988;18.664;2023-04-22T00:38:47;100434.31;;;13.61;77.20
69772;BME280;57046;45.988;18.664;2023-04-22T00:41:13;100429.25;;;13.59;77.46
69772;BME280;57046;45.988;18.664;2023-04-22T00:43:38;100425.28;;;13.57;77.91
69772;BME280;57046;45.988;18.664;2023-04-22T00:46:04;100432.63;;;13.56;78.13
69772;BME280;57046;45.988;18.664;2023-04-22T00:48:30;100431.72;;;13.52;77.13
69772;BME280;57046;45.988;18.664;2023-04-22T00:50:56;100416.22;;;13.41;77.25
69772;BME280;57046;45.988;18.664;2023-04-22T00:53:21;100431.63;;;13.49;76.41
69772;BME280;57046;45.988;18.664;2023-04-22T00:55:46;100433.78;;;13.43;76.98
69772;BME280;57046;45.988;18.664;2023-04-22T00:58:12;100429.03;;;13.40;77.22
69772;BME280;57046;45.988;18.664;2023-04-22T01:00:38;100433.97;;;13.38;77.44
69772;BME280;57046;45.988;18.664;2023-04-22T01:03:05;100433.06;;;13.34;77.01
69772;BME280;57046;45.988;18.664;2023-04-22T01:05:30;100436.03;;;13.29;76.67
69772;BME280;57046;45.988;18.664;2023-04-22T01:07:56;100431.28;;;13.26;76.88
69772;BME280;57046;45.988;18.664;2023-04-22T01:10:21;100435.00;;;13.21;76.46
69772;BME280;57046;45.988;18.664;2023-04-22T01:12:46;100436.78;;;13.17;77.19
69772;BME280;57046;45.988;18.664;2023-04-22T01:15:12;100438.59;;;13.13;76.99
69772;BME280;57046;45.988;18.664;2023-04-22T01:17:37;100438.16;;;13.11;76.15
69772;BME280;57046;45.988;18.664;2023-04-22T01:20:03;100440.47;;;13.01;76.96
69772;BME280;57046;45.988;18.664;2023-04-22T01:22:32;100447.50;;;13.02;76.91
69772;BME280;57046;45.988;18.664;2023-04-22T01:24:59;100436.72;;;12.93;76.34
69772;BME280;57046;45.988;18.664;2023-04-22T01:27:25;100445.66;;;12.94;78.04
69772;BME280;57046;45.988;18.664;2023-04-22T01:29:50;100449.72;;;12.88;78.27
69772;BME280;57046;45.988;18.664;2023-04-22T01:32:16;100454.56;;;12.82;77.76
69772;BME280;57046;45.988;18.664;2023-04-22T01:34:42;100455.09;;;12.75;78.67
69772;BME280;57046;45.988;18.664;2023-04-22T01:37:07;100450.19;;;12.69;78.00
69772;BME280;57046;45.988;18.664;2023-04-22T01:39:34;100452.16;;;12.68;77.87
69772;BME280;57046;45.988;18.664;2023-04-22T01:41:59;100450.75;;;12.62;78.74
69772;BME280;57046;45.988;18.664;2023-04-22T01:44:25;100454.47;;;12.58;78.69
69772;BME280;57046;45.988;18.664;2023-04-22T01:46:51;100450.84;;;12.54;78.67
69772;BME280;57046;45.988;18.664;2023-04-22T01:49:16;100459.97;;;12.49;79.04
69772;BME280;57046;45.988;18.664;2023-04-22T01:51:41;100459.81;;;12.46;78.80
69772;BME280;57046;45.988;18.664;2023-04-22T01:54:08;100454.00;;;12.35;79.55
69772;BME280;57046;45.988;18.664;2023-04-22T01:56:34;100454.00;;;12.35;79.39
69772;BME280;57046;45.988;18.664;2023-04-22T01:58:59;100453.88;;;12.32;78.83
69772;BME280;57046;45.988;18.664;2023-04-22T02:01:25;100456.00;;;12.26;79.05
69772;BME280;57046;45.988;18.664;2023-04-22T02:03:50;100451.56;;;12.21;79.45
69772;BME280;57046;45.988;18.664;2023-04-22T02:06:15;100447.97;;;12.17;79.26
69772;BME280;57046;45.988;18.664;2023-04-22T02:08:41;100440.81;;;12.13;79.12
69772;BME280;57046;45.988;18.664;2023-04-22T02:11:06;100448.16;;;12.12;78.18
69772;BME280;57046;45.988;18.664;2023-04-22T02:13:36;100442.00;;;12.03;78.91
69772;BME280;57046;45.988;18.664;2023-04-22T02:16:02;100447.75;;;12.02;79.21
69772;BME280;57046;45.988;18.664;2023-04-22T02:18:28;100449.50;;;11.98;79.29
69772;BME280;57046;45.988;18.664;2023-04-22T02:20:53;100444.63;;;11.91;79.18
69772;BME280;57046;45.988;18.664;2023-04-22T02:23:19;100459.63;;;11.89;79.57
69772;BME280;57046;45.988;18.664;2023-04-22T02:25:48;100449.97;;;11.79;79.46
69772;BME280;57046;45.988;18.664;2023-04-22T02:28:14;100455.03;;;11.81;79.20
69772;BME280;57046;45.988;18.664;2023-04-22T02:30:39;100457.59;;;11.77;79.40
69772;BME280;57046;45.988;18.664;2023-04-22T02:33:04;100461.31;;;11.72;79.66
69772;BME280;57046;45.988;18.664;2023-04-22T02:35:30;100447.78;;;11.64;80.28
69772;BME280;57046;45.988;18.664;2023-04-22T02:37:55;100456.09;;;11.59;80.30
69772;BME280;57046;45.988;18.664;2023-04-22T02:40:20;100454.50;;;11.58;79.42
69772;BME280;57046;45.988;18.664;2023-04-22T02:42:46;100447.84;;;11.55;79.14
69772;BME280;57046;45.988;18.664;2023-04-22T02:45:11;100450.41;;;11.52;79.60
69772;BME280;57046;45.988;18.664;2023-04-22T02:47:36;100420.25;;;11.33;79.73
69772;BME280;57046;45.988;18.664;2023-04-22T02:50:02;100444.56;;;11.41;80.07
69772;BME280;57046;45.988;18.664;2023-04-22T02:52:27;100451.41;;;11.39;79.38
69772;BME280;57046;45.988;18.664;2023-04-22T02:54:53;100442.22;;;11.31;79.02
69772;BME280;57046;45.988;18.664;2023-04-22T02:57:18;100448.59;;;11.27;78.74
69772;BME280;57046;45.988;18.664;2023-04-22T02:59:44;100455.16;;;11.26;79.71
69772;BME280;57046;45.988;18.664;2023-04-22T03:02:09;100456.25;;;11.24;79.94
69772;BME280;57046;45.988;18.664;2023-04-22T03:04:34;100456.09;;;11.21;80.09
69772;BME280;57046;45.988;18.664;2023-04-22T03:07:00;100456.91;;;11.21;79.97
69772;BME280;57046;45.988;18.664;2023-04-22T03:09:25;100469.03;;;11.15;80.49
69772;BME280;57046;45.988;18.664;2023-04-22T03:11:50;100455.66;;;11.10;80.65
69772;BME280;57046;45.988;18.664;2023-04-22T03:14:16;100459.00;;;11.07;80.84
69772;BME280;57046;45.988;18.664;2023-04-22T03:16:41;100468.88;;;11.03;81.13
69772;BME280;57046;45.988;18.664;2023-04-22T03:19:06;100467.63;;;11.01;80.55
69772;BME280;57046;45.988;18.664;2023-04-22T03:21:32;100457.59;;;10.93;80.94
69772;BME280;57046;45.988;18.664;2023-04-22T03:23:58;100463.66;;;10.90;81.21
69772;BME280;57046;45.988;18.664;2023-04-22T03:26:23;100465.59;;;10.81;81.63
69772;BME280;57046;45.988;18.664;2023-04-22T03:28:48;100470.22;;;10.80;81.50
69772;BME280;57046;45.988;18.664;2023-04-22T03:31:14;100471.16;;;10.84;80.70
69772;BME280;57046;45.988;18.664;2023-04-22T03:33:39;100467.50;;;10.80;80.74
69772;BME280;57046;45.988;18.664;2023-04-22T03:36:04;100468.16;;;10.77;81.15
69772;BME280;57046;45.988;18.664;2023-04-22T03:38:30;100476.91;;;10.74;81.17
69772;BME280;57046;45.988;18.664;2023-04-22T03:40:55;100470.84;;;10.68;81.22
69772;BME280;57046;45.988;18.664;2023-04-22T03:43:21;100478.19;;;10.68;81.68
69772;BME280;57046;45.988;18.664;2023-04-22T03:45:46;100471.03;;;10.63;80.99
69772;BME280;57046;45.988;18.664;2023-04-22T03:48:11;100469.28;;;10.59;81.87
69772;BME280;57046;45.988;18.664;2023-04-22T03:50:37;100473.72;;;10.55;81.43
69772;BME280;57046;45.988;18.664;2023-04-22T03:53:02;100472.78;;;10.51;81.15
69772;BME280;57046;45.988;18.664;2023-04-22T03:55:27;100469.13;;;10.47;80.92
69772;BME280;57046;45.988;18.664;2023-04-22T03:57:53;100477.25;;;10.47;81.83
69772;BME280;57046;45.988;18.664;2023-04-22T04:00:18;100485.97;;;10.44;81.18
69772;BME280;57046;45.988;18.664;2023-04-22T04:02:43;100472.63;;;10.39;80.74
69772;BME280;57046;45.988;18.664;2023-04-22T04:05:09;100482.00;;;10.41;80.46
69772;BME280;57046;45.988;18.664;2023-04-22T04:07:34;100477.88;;;10.35;81.62
69772;BME280;57046;45.988;18.664;2023-04-22T04:09:59;100468.47;;;10.24;81.95
69772;BME280;57046;45.988;18.664;2023-04-22T04:12:25;100478.66;;;10.27;82.16
69772;BME280;57046;45.988;18.664;2023-04-22T04:14:50;100485.81;;;10.32;82.18
69772;BME280;57046;45.988;18.664;2023-04-22T04:17:15;100490.09;;;10.33;82.09
69772;BME280;57046;45.988;18.664;2023-04-22T04:19:41;100495.66;;;10.28;82.80
69772;BME280;57046;45.988;18.664;2023-04-22T04:22:06;100491.38;;;10.27;83.16
69772;BME280;57046;45.988;18.664;2023-04-22T04:24:31;100493.75;;;10.19;83.77
69772;BME280;57046;45.988;18.664;2023-04-22T04:26:57;100490.88;;;10.25;83.34
69772;BME280;57046;45.988;18.664;2023-04-22T04:29:22;100495.47;;;10.24;82.99
69772;BME280;57046;45.988;18.664;2023-04-22T04:31:48;100499.63;;;10.21;83.41
69772;BME280;57046;45.988;18.664;2023-04-22T04:34:13;100496.91;;;10.21;83.38
69772;BME280;57046;45.988;18.664;2023-04-22T04:36:38;100489.44;;;10.18;83.54
69772;BME280;57046;45.988;18.664;2023-04-22T04:39:05;100494.72;;;10.24;83.29
69772;BME280;57046;45.988;18.664;2023-04-22T04:41:30;100498.97;;;10.25;83.49
69772;BME280;57046;45.988;18.664;2023-04-22T04:43:55;100504.88;;;10.27;82.94
69772;BME280;57046;45.988;18.664;2023-04-22T04:46:21;100500.59;;;10.26;83.02
69772;BME280;57046;45.988;18.664;2023-04-22T04:48:46;100501.53;;;10.30;84.16
69772;BME280;57046;45.988;18.664;2023-04-22T04:51:11;100492.00;;;10.24;84.08
69772;BME280;57046;45.988;18.664;2023-04-22T04:53:38;100510.91;;;10.32;83.79
69772;BME280;57046;45.988;18.664;2023-04-22T04:56:04;100513.31;;;10.34;83.35
69772;BME280;57046;45.988;18.664;2023-04-22T04:58:29;100511.88;;;10.36;83.49
69772;BME280;57046;45.988;18.664;2023-04-22T05:00:54;100508.38;;;10.36;82.45
69772;BME280;57046;45.988;18.664;2023-04-22T05:03:20;100515.53;;;10.40;82.85
69772;BME280;57046;45.988;18.664;2023-04-22T05:05:45;100517.91;;;10.42;81.68
69772;BME280;57046;45.988;18.664;2023-04-22T05:08:11;100519.19;;;10.44;82.47
69772;BME280;57046;45.988;18.664;2023-04-22T05:10:36;100525.53;;;10.48;82.47
69772;BME280;57046;45.988;18.664;2023-04-22T05:13:01;100513.16;;;10.47;82.47
69772;BME280;57046;45.988;18.664;2023-04-22T05:15:27;100519.66;;;10.55;83.18
69772;BME280;57046;45.988;18.664;2023-04-22T05:17:53;100506.47;;;10.53;86.68
69772;BME280;57046;45.988;18.664;2023-04-22T05:20:18;100520.44;;;10.72;85.80
69772;BME280;57046;45.988;18.664;2023-04-22T05:22:43;100521.53;;;10.97;92.99
69772;BME280;57046;45.988;18.664;2023-04-22T05:25:09;100521.22;;;11.07;89.72
69772;BME280;57046;45.988;18.664;2023-04-22T05:27:34;100517.09;;;11.01;86.33
69772;BME280;57046;45.988;18.664;2023-04-22T05:30:00;100517.25;;;11.05;83.68
69772;BME280;57046;45.988;18.664;2023-04-22T05:32:25;100519.47;;;11.11;81.49
69772;BME280;57046;45.988;18.664;2023-04-22T05:34:51;100525.16;;;11.18;80.65
69772;BME280;57046;45.988;18.664;2023-04-22T05:37:16;100527.69;;;11.23;79.98
69772;BME280;57046;45.988;18.664;2023-04-22T05:39:41;100528.34;;;11.29;79.35
69772;BME280;57046;45.988;18.664;2023-04-22T05:42:07;100534.34;;;11.35;78.92
69772;BME280;57046;45.988;18.664;2023-04-22T05:44:32;100532.25;;;11.40;77.66
69772;BME280;57046;45.988;18.664;2023-04-22T05:46:57;100530.00;;;11.51;77.11
69772;BME280;57046;45.988;18.664;2023-04-22T05:49:23;100533.16;;;11.61;76.73
69772;BME280;57046;45.988;18.664;2023-04-22T05:51:49;100539.50;;;11.65;76.73
69772;BME280;57046;45.988;18.664;2023-04-22T05:54:14;100543.16;;;11.69;77.05
69772;BME280;57046;45.988;18.664;2023-04-22T05:56:40;100538.38;;;11.75;76.98
69772;BME280;57046;45.988;18.664;2023-04-22T05:59:05;100541.50;;;11.86;76.52
69772;BME280;57046;45.988;18.664;2023-04-22T06:01:30;100539.09;;;11.93;76.28
69772;BME280;57046;45.988;18.664;2023-04-22T06:03:56;100544.00;;;11.99;76.63
69772;BME280;57046;45.988;18.664;2023-04-22T06:06:21;100543.16;;;12.07;76.94
69772;BME280;57046;45.988;18.664;2023-04-22T06:08:47;100546.59;;;12.16;77.39
69772;BME280;57046;45.988;18.664;2023-04-22T06:11:12;100550.84;;;12.26;77.58
69772;BME280;57046;45.988;18.664;2023-04-22T06:13:37;100555.22;;;12.39;75.82
69772;BME280;57046;45.988;18.664;2023-04-22T06:16:03;100550.47;;;12.57;75.66
69772;BME280;57046;45.988;18.664;2023-04-22T06:18:28;100559.47;;;12.69;76.58
69772;BME280;57046;45.988;18.664;2023-04-22T06:20:54;100549.94;;;12.84;75.91
69772;BME280;57046;45.988;18.664;2023-04-22T06:23:19;100556.53;;;12.95;73.91
69772;BME280;57046;45.988;18.664;2023-04-22T06:25:44;100548.44;;;13.07;70.42
69772;BME280;57046;45.988;18.664;2023-04-22T06:28:10;100554.97;;;13.27;69.56
69772;BME280;57046;45.988;18.664;2023-04-22T06:30:35;100555.03;;;13.39;69.60
69772;BME280;57046;45.988;18.664;2023-04-22T06:33:00;100559.47;;;13.56;68.46
69772;BME280;57046;45.988;18.664;2023-04-22T06:35:26;100560.38;;;13.72;70.04
69772;BME280;57046;45.988;18.664;2023-04-22T06:37:51;100553.81;;;13.85;67.61
69772;BME280;57046;45.988;18.664;2023-04-22T06:40:16;100552.69;;;13.98;63.71
69772;BME280;57046;45.988;18.664;2023-04-22T06:42:42;100550.19;;;14.05;64.37
69772;BME280;57046;45.988;18.664;2023-04-22T06:45:07;100554.94;;;14.20;62.10
69772;BME280;57046;45.988;18.664;2023-04-22T06:47:33;100555.19;;;14.27;59.35
69772;BME280;57046;45.988;18.664;2023-04-22T06:49:58;100553.72;;;14.42;59.84
69772;BME280;57046;45.988;18.664;2023-04-22T06:52:23;100555.50;;;14.50;58.51
69772;BME280;57046;45.988;18.664;2023-04-22T06:54:49;100558.19;;;14.62;59.31
69772;BME280;57046;45.988;18.664;2023-04-22T06:57:14;100539.38;;;14.57;59.11
69772;BME280;57046;45.988;18.664;2023-04-22T06:59:40;100518.31;;;14.54;58.72
69772;BME280;57046;45.988;18.664;2023-04-22T07:02:06;100555.84;;;14.89;57.77
69772;BME280;57046;45.988;18.664;2023-04-22T07:04:31;100547.56;;;14.85;57.06
69772;BME280;57046;45.988;18.664;2023-04-22T07:06:57;100560.69;;;14.95;56.58
69772;BME280;57046;45.988;18.664;2023-04-22T07:09:22;100562.13;;;15.05;57.89
69772;BME280;57046;45.988;18.664;2023-04-22T07:11:47;100563.13;;;15.12;56.22
69772;BME280;57046;45.988;18.664;2023-04-22T07:14:13;100566.81;;;15.20;55.05
69772;BME280;57046;45.988;18.664;2023-04-22T07:16:38;100563.94;;;15.28;53.97
69772;BME280;57046;45.988;18.664;2023-04-22T07:19:04;100560.00;;;15.42;53.20
69772;BME280;57046;45.988;18.664;2023-04-22T07:21:29;100556.16;;;15.43;52.28
69772;BME280;57046;45.988;18.664;2023-04-22T07:23:54;100561.47;;;15.51;53.82
69772;BME280;57046;45.988;18.664;2023-04-22T07:26:20;100567.97;;;15.62;52.35
69772;BME280;57046;45.988;18.664;2023-04-22T07:28:45;100568.94;;;15.70;54.56
69772;BME280;57046;45.988;18.664;2023-04-22T07:31:10;100563.16;;;15.71;52.00
69772;BME280;57046;45.988;18.664;2023-04-22T07:33:36;100569.28;;;15.84;51.75
69772;BME280;57046;45.988;18.664;2023-04-22T07:36:01;100566.75;;;15.91;51.71
69772;BME280;57046;45.988;18.664;2023-04-22T07:38:27;100568.09;;;16.16;49.92
69772;BME280;57046;45.988;18.664;2023-04-22T07:40:52;100567.47;;;16.39;50.27
69772;BME280;57046;45.988;18.664;2023-04-22T07:43:17;100572.63;;;16.59;52.52
69772;BME280;57046;45.988;18.664;2023-04-22T07:45:43;100573.91;;;16.65;50.10
69772;BME280;57046;45.988;18.664;2023-04-22T07:48:08;100574.16;;;16.76;49.95
69772;BME280;57046;45.988;18.664;2023-04-22T07:50:34;100574.31;;;16.83;49.87
69772;BME280;57046;45.988;18.664;2023-04-22T07:52:59;100575.94;;;17.07;47.69
69772;BME280;57046;45.988;18.664;2023-04-22T07:55:24;100571.97;;;17.23;49.33
69772;BME280;57046;45.988;18.664;2023-04-22T07:57:50;100577.41;;;17.43;47.31
69772;BME280;57046;45.988;18.664;2023-04-22T08:00:16;100571.66;;;17.48;46.81
69772;BME280;57046;45.988;18.664;2023-04-22T08:02:41;100564.50;;;17.62;46.22
69772;BME280;57046;45.988;18.664;2023-04-22T08:05:07;100569.81;;;17.74;47.48
69772;BME280;57046;45.988;18.664;2023-04-22T08:07:32;100566.56;;;17.92;47.07
69772;BME280;57046;45.988;18.664;2023-04-22T08:09:57;100565.16;;;18.01;46.05
69772;BME280;57046;45.988;18.664;2023-04-22T08:12:23;100564.63;;;18.18;47.49
69772;BME280;57046;45.988;18.664;2023-04-22T08:14:48;100570.69;;;18.31;45.86
69772;BME280;57046;45.988;18.664;2023-04-22T08:17:13;100563.72;;;18.37;46.62
69772;BME280;57046;45.988;18.664;2023-04-22T08:19:39;100566.69;;;18.51;49.67
69772;BME280;57046;45.988;18.664;2023-04-22T08:22:04;100568.47;;;18.66;45.76
69772;BME280;57046;45.988;18.664;2023-04-22T08:24:30;100565.53;;;18.82;45.38
69772;BME280;57046;45.988;18.664;2023-04-22T08:26:56;100562.56;;;18.94;44.04
69772;BME280;57046;45.988;18.664;2023-04-22T08:29:21;100567.78;;;19.06;43.92
69772;BME280;57046;45.988;18.664;2023-04-22T08:31:47;100564.47;;;19.23;45.64
69772;BME280;57046;45.988;18.664;2023-04-22T08:34:12;100561.78;;;19.30;41.50
69772;BME280;57046;45.988;18.664;2023-04-22T08:36:37;100564.56;;;19.34;39.89
69772;BME280;57046;45.988;18.664;2023-04-22T08:39:03;100566.28;;;19.46;40.40
69772;BME280;57046;45.988;18.664;2023-04-22T08:41:29;100558.16;;;19.56;39.66
69772;BME280;57046;45.988;18.664;2023-04-22T08:43:54;100566.44;;;19.63;40.09
69772;BME280;57046;45.988;18.664;2023-04-22T08:46:21;100568.16;;;19.78;39.46
69772;BME280;57046;45.988;18.664;2023-04-22T08:48:47;100558.00;;;19.83;40.04
69772;BME280;57046;45.988;18.664;2023-04-22T08:51:15;100522.31;;;19.79;40.81
69772;BME280;57046;45.988;18.664;2023-04-22T08:53:41;100565.31;;;20.19;37.92
69772;BME280;57046;45.988;18.664;2023-04-22T08:56:07;100572.09;;;20.32;36.52
69772;BME280;57046;45.988;18.664;2023-04-22T08:58:33;100567.84;;;20.42;36.25
69772;BME280;57046;45.988;18.664;2023-04-22T09:00:59;100572.59;;;20.52;37.22
69772;BME280;57046;45.988;18.664;2023-04-22T09:03:25;100563.63;;;20.62;37.81
69772;BME280;57046;45.988;18.664;2023-04-22T09:05:51;100555.03;;;20.67;37.33
69772;BME280;57046;45.988;18.664;2023-04-22T09:08:18;100569.66;;;20.85;37.22
69772;BME280;57046;45.988;18.664;2023-04-22T09:10:44;100567.31;;;20.94;37.25
69772;BME280;57046;45.988;18.664;2023-04-22T09:13:09;100562.22;;;21.00;33.75
69772;BME280;57046;45.988;18.664;2023-04-22T09:15:35;100564.69;;;21.12;33.94
69772;BME280;57046;45.988;18.664;2023-04-22T09:18:04;100569.44;;;21.25;33.28
69772;BME280;57046;45.988;18.664;2023-04-22T09:20:29;100567.88;;;21.39;34.39
69772;BME280;57046;45.988;18.664;2023-04-22T09:22:56;100568.69;;;21.46;35.89
69772;BME280;57046;45.988;18.664;2023-04-22T09:25:24;100563.56;;;21.52;35.44
69772;BME280;57046;45.988;18.664;2023-04-22T09:27:54;100560.03;;;21.58;34.19
69772;BME280;57046;45.988;18.664;2023-04-22T09:32:53;100557.31;;;21.87;34.78
69772;BME280;57046;45.988;18.664;2023-04-22T09:37:55;100556.53;;;22.07;35.34
69772;BME280;57046;45.988;18.664;2023-04-22T09:40:20;100552.19;;;22.24;35.13
69772;BME280;57046;45.988;18.664;2023-04-22T09:42:50;100558.06;;;22.37;33.59
69772;BME280;57046;45.988;18.664;2023-04-22T09:45:35;100560.78;;;22.47;33.33
69772;BME280;57046;45.988;18.664;2023-04-22T09:50:30;100550.91;;;22.60;32.29
69772;BME280;57046;45.988;18.664;2023-04-22T09:52:59;100560.75;;;22.72;33.46
69772;BME280;57046;45.988;18.664;2023-04-22T09:55:27;100551.66;;;22.78;34.13
69772;BME280;57046;45.988;18.664;2023-04-22T09:57:54;100541.81;;;22.77;31.17
69772;BME280;57046;45.988;18.664;2023-04-22T10:00:21;100546.88;;;22.90;31.36
69772;BME280;57046;45.988;18.664;2023-04-22T10:02:47;100537.38;;;23.01;31.36
69772;BME280;57046;45.988;18.664;2023-04-22T10:05:12;100531.81;;;23.08;30.03
69772;BME280;57046;45.988;18.664;2023-04-22T10:07:38;100535.66;;;23.25;32.84
69772;BME280;57046;45.988;18.664;2023-04-22T10:10:03;100526.22;;;23.22;30.37
69772;BME280;57046;45.988;18.664;2023-04-22T10:12:29;100534.00;;;23.34;29.62
69772;BME280;57046;45.988;18.664;2023-04-22T10:14:54;100526.91;;;23.41;29.51
69772;BME280;57046;45.988;18.664;2023-04-22T10:17:20;100511.94;;;23.42;30.01
69772;BME280;57046;45.988;18.664;2023-04-22T10:19:47;100520.88;;;23.60;29.52
69772;BME280;57046;45.988;18.664;2023-04-22T10:22:13;100528.31;;;23.63;26.41
69772;BME280;57046;45.988;18.664;2023-04-22T10:24:38;100526.63;;;23.76;26.57
69772;BME280;57046;45.988;18.664;2023-04-22T10:27:04;100523.44;;;23.81;26.79
69772;BME280;57046;45.988;18.664;2023-04-22T10:29:37;100523.00;;;23.86;26.64
69772;BME280;57046;45.988;18.664;2023-04-22T10:32:23;100516.09;;;24.08;28.58
69772;BME280;57046;45.988;18.664;2023-04-22T10:34:49;100514.47;;;24.14;23.73
69772;BME280;57046;45.988;18.664;2023-04-22T10:37:19;100519.81;;;24.32;25.84
69772;BME280;57046;45.988;18.664;2023-04-22T10:40:05;100519.00;;;24.35;26.53
69772;BME280;57046;45.988;18.664;2023-04-22T10:42:30;100511.06;;;24.37;26.48
69772;BME280;57046;45.988;18.664;2023-04-22T10:45:00;100516.88;;;24.46;27.66
69772;BME280;57046;45.988;18.664;2023-04-22T10:47:28;100497.53;;;24.46;26.57
69772;BME280;57046;45.988;18.664;2023-04-22T10:52:34;100515.47;;;24.65;25.15
69772;BME280;57046;45.988;18.664;2023-04-22T10:55:00;100503.13;;;24.73;24.86
69772;BME280;57046;45.988;18.664;2023-04-22T10:57:52;100511.69;;;24.82;25.69
69772;BME280;57046;45.988;18.664;2023-04-22T11:00:29;100472.56;;;24.53;23.93
69772;BME280;57046;45.988;18.664;2023-04-22T11:05:29;100508.91;;;24.86;24.60
69772;BME280;57046;45.988;18.664;2023-04-22T11:07:59;100504.19;;;25.13;27.28
69772;BME280;57046;45.988;18.664;2023-04-22T11:10:40;100496.81;;;25.29;27.97
69772;BME280;57046;45.988;18.664;2023-04-22T11:13:07;100501.56;;;25.29;26.49
69772;BME280;57046;45.988;18.664;2023-04-22T11:15:35;100496.88;;;25.26;24.52
69772;BME280;57046;45.988;18.664;2023-04-22T11:18:01;100493.22;;;25.32;24.84
69772;BME280;57046;45.988;18.664;2023-04-22T11:20:27;100482.56;;;25.31;23.44
69772;BME280;57046;45.988;18.664;2023-04-22T11:22:54;100493.22;;;25.32;23.82
69772;BME280;57046;45.988;18.664;2023-04-22T11:25:20;100490.88;;;25.58;24.33
69772;BME280;57046;45.988;18.664;2023-04-22T11:27:46;100489.16;;;25.87;25.70
69772;BME280;57046;45.988;18.664;2023-04-22T11:30:23;100469.06;;;25.83;26.56
69772;BME280;57046;45.988;18.664;2023-04-22T11:32:50;100477.63;;;25.92;24.92
69772;BME280;57046;45.988;18.664;2023-04-22T11:35:21;100482.78;;;25.90;24.72
69772;BME280;57046;45.988;18.664;2023-04-22T11:37:52;100480.84;;;25.87;24.19
69772;BME280;57046;45.988;18.664;2023-04-22T11:40:20;100487.97;;;25.88;23.72
69772;BME280;57046;45.988;18.664;2023-04-22T11:42:47;100488.63;;;25.96;23.35
69772;BME280;57046;45.988;18.664;2023-04-22T11:45:12;100489.16;;;25.87;25.07
69772;BME280;57046;45.988;18.664;2023-04-22T11:47:39;100475.31;;;25.87;22.65
69772;BME280;57046;45.988;18.664;2023-04-22T11:50:07;100480.81;;;26.10;26.16
69772;BME280;57046;45.988;18.664;2023-04-22T11:55:32;100485.47;;;26.17;24.38
69772;BME280;57046;45.988;18.664;2023-04-22T11:58:08;100480.63;;;26.21;24.30
69772;BME280;57046;45.988;18.664;2023-04-22T12:00:34;100472.28;;;26.01;23.95
69772;BME280;57046;45.988;18.664;2023-04-22T12:03:20;100476.69;;;25.99;23.75
69772;BME280;57046;45.988;18.664;2023-04-22T12:05:50;100479.59;;;25.92;24.42
69772;BME280;57046;45.988;18.664;2023-04-22T12:08:18;100474.53;;;25.63;22.90
69772;BME280;57046;45.988;18.664;2023-04-22T12:10:57;100479.22;;;25.90;22.37
69772;BME280;57046;45.988;18.664;2023-04-22T12:13:28;100477.34;;;25.83;21.93
69772;BME280;57046;45.988;18.664;2023-04-22T12:15:57;100462.94;;;25.72;24.72
69772;BME280;57046;45.988;18.664;2023-04-22T12:18:48;100462.44;;;25.77;22.44
69772;BME280;57046;45.988;18.664;2023-04-22T12:21:18;100470.13;;;25.43;23.21
69772;BME280;57046;45.988;18.664;2023-04-22T12:23:48;100468.00;;;25.54;23.11
69772;BME280;57046;45.988;18.664;2023-04-22T12:26:19;100460.09;;;25.52;23.95
69772;BME280;57046;45.988;18.664;2023-04-22T12:28:45;100469.28;;;25.46;23.81
69772;BME280;57046;45.988;18.664;2023-04-22T12:31:11;100465.66;;;25.25;23.78
69772;BME280;57046;45.988;18.664;2023-04-22T12:33:37;100460.91;;;24.99;24.42
69772;BME280;57046;45.988;18.664;2023-04-22T12:36:04;100464.63;;;24.89;23.38
69772;BME280;57046;45.988;18.664;2023-04-22T12:38:29;100459.41;;;24.95;23.67
69772;BME280;57046;45.988;18.664;2023-04-22T12:40:55;100458.22;;;24.96;24.77
69772;BME280;57046;45.988;18.664;2023-04-22T12:43:20;100451.34;;;25.30;23.71
69772;BME280;57046;45.988;18.664;2023-04-22T12:45:46;100455.22;;;25.60;23.42
69772;BME280;57046;45.988;18.664;2023-04-22T12:48:11;100450.50;;;25.80;22.55
69772;BME280;57046;45.988;18.664;2023-04-22T12:50:37;100443.66;;;26.08;21.97
69772;BME280;57046;45.988;18.664;2023-04-22T12:53:02;100453.19;;;26.26;24.08